Share

Arcadia, NE

11:23 AM CDT on April 24, 2014 (GMT -0500)
Sharp (KODX) Elev 2070 ft | 41.62 °N, 98.95 °W | Change Station

Current weather conditions updated 30 minutes ago

Clear
Clear
61 °F
Feels Like 61 °F
N
26
Wind Variable Wind from NNW
Gusts 37 mph
Sunrise 6:42 AM
Sunset 8:26 PM
Moon Waning Crescent

Today is forecast to be Much Cooler than yesterday.

Pressure 29.78 in
Visibility 10.0 miles
Clouds Clear
Dew Point 30 °F
Humidity 31%
Rainfall 0.15 in
Snow Depth Not available.
UV 6 out of 16
Pollen 9.80 out of 12
Air Quality Not available.
Flu Activity Sporadic
METAR KODX 241553Z AUTO 34023G32KT 10SM CLR 16/M01 A2979 RMK AO2 PK WND 34032/1546 SLP085 T01611011

More Conditions Fewer Conditions

Pressure 29.78 in
Visibility 10.0 miles
Clouds Clear
Dew Point 30 °F
Humidity 31%
Rainfall 0.15 in
Snow Depth Not available.
UV 6 out of 16
Pollen 9.80 out of 12
Air Quality Not available.
Flu Activity Sporadic
METAR KODX 241553Z AUTO 34023G32KT 10SM CLR 16/M01 A2979 RMK AO2 PK WND 34032/1546 SLP085 T01611011

More Conditions Fewer Conditions

10-Day Weather Forecast

Almanac

Astronomy

Apr. 24, 2014 Rise Set
Actual Time 6:42 AM CDT 8:26 PM CDT
Civil Twilight 6:13 AM CDT 8:56 PM CDT
Nautical Twilight 5:37 AM CDT 9:31 PM CDT
Astronomical Twilight 4:59 AM CDT 10:10 PM CDT
Moon 3:58 AM CDT 3:40 PM CDT
Length of Visible Light 14h 42m
Length of Day
13h 43m
Tomorrow will be 2m 31s longer.
Waning Crescent, 24% of the Moon is Illuminated
Today
Waning Crescent
Apr 29
New
May 6
First Quarter
May 14
Full
May 21
Last Quarter

Today's Extremes

State Highs State Lows

Community

  • Sunset at Apalachicola Bay, Florida
    Sunset at Apalachicola Bay, Florida
  • Clouds mov'n in
    Clouds mov'n in
  • Stacked
    Stacked
  • clouds approaching Red Sox Nation
    clouds approaching Red Sox Nation
  • Balance
    Balance

WunderPhotos

Upload Photos

1,704,657 photos uploaded!

Nearby

Snow Depth

Station Depth Elevation
No new snow has been reported.

Coastal Water Temperatures

Place Temperature
No Stations Reporting

Earthquake Activity

City Distance Mag. Time & Date
No recent earthquake activity has been reported nearby.
Minimum magnitude displayed is 2.5.

Nearby Weather Stations

Station Location Temp. Dew Point Humidity Wind Precip. Elev Updated Type
Central, Loup City, NE 63.3 °F 34 °F 34% NW  at  15.0 mph - / hr 2090 ft 11:13 AM CDT Normal
Sargent, Sargent, NE 62.9 °F 21 °F 20% NW  at  12.0 mph 0.00 in / hr 2314 ft 11:12 AM CDT Normal
Ansley, NE 60.9 °F 28 °F 28% NW  at  13.0 mph 0.00 in / hr 2320 ft 11:00 AM CDT Normal

Show More Stations Show Fewer Stations

What do you think?

We're not finished. Please let us know what you like, what you don't like, and what you are still missing.